Time;durP1;ratioP1;P1;durP2;ratioP2;P2;SDS_P1;SDS_P2;PMS_P1;PMS_P2;Temp;Humidity;BMP_temperature;BMP_pressure;BME280_temperature;BME280_humidity;BME280_pressure;Samples;Min_cycle;Max_cycle;Signal;HPM_P1;HPM_P2
2020/12/07 00:01:45;;;;;;;9.63;6.72;;;4.80;79.00;;;;;;5041791;28;20045;-65
2020/12/07 00:04:10;;;;;;;9.23;6.40;;;4.80;78.80;;;;;;5038750;28;20276;-65
2020/12/07 00:06:36;;;;;;;9.70;6.80;;;4.90;78.60;;;;;;5043449;28;20030;-65
2020/12/07 00:09:01;;;;;;;9.75;6.65;;;4.90;78.50;;;;;;5041659;28;20034;-65
2020/12/07 00:11:27;;;;;;;8.50;6.10;;;4.90;78.50;;;;;;5044730;28;20061;-65
2020/12/07 00:13:52;;;;;;;9.43;6.53;;;5.00;78.90;;;;;;5038966;28;20087;-66
2020/12/07 00:16:18;;;;;;;10.82;6.78;;;4.90;78.60;;;;;;5042685;28;20033;-66
2020/12/07 00:18:43;;;;;;;9.93;6.88;;;4.80;78.50;;;;;;5042897;28;20272;-65
2020/12/07 00:21:09;;;;;;;9.90;6.90;;;4.60;78.90;;;;;;5042973;28;20208;-65
2020/12/07 00:23:35;;;;;;;8.95;6.32;;;4.80;79.00;;;;;;5045461;28;20217;-65
2020/12/07 00:26:01;;;;;;;8.60;6.20;;;4.90;79.20;;;;;;5043448;28;20052;-65
2020/12/07 00:28:27;;;;;;;8.32;5.97;;;4.90;78.40;;;;;;5039140;28;20033;-65
2020/12/07 00:30:52;;;;;;;9.18;6.55;;;4.70;78.60;;;;;;5041128;28;20053;-65
2020/12/07 00:33:18;;;;;;;9.82;6.80;;;4.80;79.20;;;;;;5042348;28;20052;-65
2020/12/07 00:35:43;;;;;;;9.70;7.25;;;4.80;79.00;;;;;;5045130;28;20308;-65
2020/12/07 00:38:09;;;;;;;9.93;6.25;;;4.70;79.20;;;;;;5042686;28;20104;-65
2020/12/07 00:40:34;;;;;;;11.90;6.47;;;4.70;79.30;;;;;;5041478;28;20029;-65
2020/12/07 00:43:00;;;;;;;9.07;6.15;;;4.60;79.10;;;;;;5039194;28;20034;-65
2020/12/07 00:45:26;;;;;;;9.40;6.72;;;4.70;79.40;;;;;;5041184;28;20040;-65
2020/12/07 00:47:51;;;;;;;10.40;6.65;;;4.80;79.70;;;;;;5045289;28;20255;-65
2020/12/07 00:50:17;;;;;;;9.63;6.65;;;4.80;79.20;;;;;;5041696;28;20444;-65
2020/12/07 00:52:43;;;;;;;9.35;6.63;;;4.80;78.90;;;;;;5041337;28;20097;-65
2020/12/07 00:55:08;;;;;;;9.23;6.50;;;4.80;79.10;;;;;;5041517;28;20115;-65
2020/12/07 00:57:34;;;;;;;8.88;6.15;;;4.80;79.00;;;;;;5042311;28;20037;-65
2020/12/07 00:59:59;;;;;;;8.30;6.00;;;4.80;78.80;;;;;;5045073;28;20212;-65
2020/12/07 01:02:25;;;;;;;8.80;6.07;;;4.50;79.20;;;;;;5042248;28;20042;-65
2020/12/07 01:04:50;;;;;;;8.55;5.78;;;4.70;79.30;;;;;;5041851;28;20108;-65
2020/12/07 01:07:16;;;;;;;8.68;6.05;;;4.90;79.20;;;;;;5039377;28;20057;-65
2020/12/07 01:09:41;;;;;;;9.10;6.25;;;4.80;79.40;;;;;;5036312;28;20037;-65
2020/12/07 01:12:07;;;;;;;9.45;6.55;;;4.90;79.10;;;;;;5044562;28;20064;-65
2020/12/07 01:14:33;;;;;;;8.88;5.78;;;4.80;78.80;;;;;;5037448;28;20033;-65
2020/12/07 01:16:58;;;;;;;9.02;6.20;;;4.80;78.90;;;;;;5041439;28;20040;-65
2020/12/07 01:19:24;;;;;;;8.55;6.15;;;4.80;79.10;;;;;;5042045;28;20165;-65
2020/12/07 01:21:50;;;;;;;8.50;6.15;;;4.60;79.30;;;;;;5040744;28;20037;-65
2020/12/07 01:24:16;;;;;;;8.57;6.22;;;4.70;79.40;;;;;;5044381;28;20037;-65
2020/12/07 01:26:42;;;;;;;7.20;5.40;;;4.70;78.80;;;;;;5041717;28;20038;-65
2020/12/07 01:29:08;;;;;;;8.95;5.85;;;4.50;79.00;;;;;;5037386;28;20056;-66
2020/12/07 01:31:33;;;;;;;8.05;5.35;;;4.50;79.30;;;;;;5039361;28;20041;-65
2020/12/07 01:33:59;;;;;;;8.63;5.95;;;4.40;79.30;;;;;;5040772;28;20324;-65
2020/12/07 01:36:24;;;;;;;7.95;5.53;;;4.60;79.40;;;;;;5039975;28;20321;-65
2020/12/07 01:38:50;;;;;;;8.27;5.75;;;4.70;79.70;;;;;;5044443;28;20309;-66
2020/12/07 01:41:16;;;;;;;7.53;5.65;;;4.70;79.70;;;;;;5039240;28;20229;-65
2020/12/07 01:43:41;;;;;;;7.80;5.25;;;4.80;79.20;;;;;;5040742;28;20163;-65
2020/12/07 01:46:07;;;;;;;6.50;5.05;;;4.80;79.40;;;;;;5038049;28;20040;-65
2020/12/07 01:48:32;;;;;;;8.15;5.47;;;4.80;79.20;;;;;;5044059;28;20075;-65
2020/12/07 01:50:58;;;;;;;6.72;5.05;;;4.90;79.10;;;;;;5019496;28;20048;-65
2020/12/07 01:53:24;;;;;;;7.30;5.15;;;4.90;79.10;;;;;;5019907;28;20329;-65
2020/12/07 01:55:49;;;;;;;7.40;5.57;;;4.90;79.00;;;;;;5004460;28;20041;-65
2020/12/07 01:58:15;;;;;;;5.55;4.47;;;4.80;79.00;;;;;;5022110;28;20034;-65
2020/12/07 02:00:41;;;;;;;6.93;5.30;;;4.90;79.00;;;;;;5024433;28;20030;-65
2020/12/07 02:03:09;;;;;;;6.20;5.22;;;4.90;79.40;;;;;;5034585;28;20111;-65
2020/12/07 02:05:34;;;;;;;6.75;5.32;;;4.80;78.70;;;;;;5024675;28;20214;-65
2020/12/07 02:08:12;;;;;;;7.00;5.22;;;4.80;79.40;;;;;;5015842;28;20045;-65
2020/12/07 02:10:38;;;;;;;6.95;5.82;;;4.80;79.40;;;;;;5020670;28;20057;-65
2020/12/07 02:13:04;;;;;;;6.40;5.20;;;4.70;79.40;;;;;;5019949;28;20057;-65
2020/12/07 02:15:30;;;;;;;5.80;4.70;;;4.70;79.60;;;;;;5024033;28;20101;-65
2020/12/07 02:17:56;;;;;;;8.15;5.10;;;4.70;79.10;;;;;;5035261;28;20341;-65
2020/12/07 02:20:21;;;;;;;6.07;4.80;;;4.80;79.30;;;;;;5026839;28;20072;-65
2020/12/07 02:22:47;;;;;;;5.75;4.47;;;4.80;78.80;;;;;;5019732;28;20034;-65
2020/12/07 02:25:12;;;;;;;6.68;5.15;;;4.70;79.00;;;;;;5020165;28;20093;-65
2020/12/07 02:27:38;;;;;;;5.18;4.43;;;4.60;79.10;;;;;;5024539;28;20034;-65
2020/12/07 02:30:03;;;;;;;5.53;4.40;;;4.70;79.80;;;;;;5019293;28;20148;-65
2020/12/07 02:32:29;;;;;;;5.03;4.30;;;4.80;79.30;;;;;;5019645;28;20034;-65
2020/12/07 02:34:54;;;;;;;6.32;4.07;;;4.60;78.80;;;;;;5019351;28;20068;-63
2020/12/07 02:37:22;;;;;;;7.38;4.40;;;4.70;79.10;;;;;;5021314;28;20391;-63
2020/12/07 02:39:48;;;;;;;4.95;3.97;;;4.70;79.30;;;;;;5047757;28;20030;-63
2020/12/07 02:42:13;;;;;;;5.28;3.95;;;4.60;79.10;;;;;;5024939;28;20048;-63
2020/12/07 02:44:39;;;;;;;4.95;4.20;;;4.60;79.20;;;;;;5034006;28;20387;-63
2020/12/07 02:47:04;;;;;;;6.50;4.70;;;4.80;79.50;;;;;;5036558;28;20038;-63
2020/12/07 02:49:30;;;;;;;5.28;4.43;;;4.80;79.00;;;;;;5022399;28;20036;-62
2020/12/07 02:51:55;;;;;;;6.13;4.50;;;4.70;79.30;;;;;;5027411;28;20237;-63
2020/12/07 02:54:21;;;;;;;4.88;4.05;;;4.80;79.50;;;;;;5037024;28;20216;-63
2020/12/07 02:56:47;;;;;;;5.28;4.30;;;4.70;79.60;;;;;;5032318;28;20225;-63
2020/12/07 02:59:12;;;;;;;5.20;4.18;;;4.70;78.80;;;;;;5029382;28;20034;-63
2020/12/07 03:01:38;;;;;;;5.72;4.30;;;4.50;79.40;;;;;;5043922;28;20030;-62
2020/12/07 03:04:03;;;;;;;4.78;3.97;;;4.70;79.70;;;;;;5047299;28;20034;-63
2020/12/07 03:06:29;;;;;;;5.68;4.30;;;4.70;79.10;;;;;;5042206;28;20052;-63
2020/12/07 03:08:54;;;;;;;4.57;3.92;;;4.70;79.00;;;;;;5042668;28;20037;-63
2020/12/07 03:11:23;;;;;;;5.25;4.28;;;4.70;79.00;;;;;;5043098;28;20072;-63
2020/12/07 03:13:49;;;;;;;4.38;3.63;;;4.60;78.90;;;;;;5042321;28;20040;-63
2020/12/07 03:16:15;;;;;;;4.60;3.80;;;4.80;79.00;;;;;;5046777;28;20088;-63
2020/12/07 03:18:40;;;;;;;4.68;4.05;;;4.60;78.30;;;;;;5039037;28;20053;-63
2020/12/07 03:21:06;;;;;;;4.50;4.00;;;4.60;78.40;;;;;;5041561;28;20053;-63
2020/12/07 03:23:32;;;;;;;5.22;4.15;;;4.50;78.30;;;;;;5042020;28;20030;-63
2020/12/07 03:25:58;;;;;;;5.05;4.07;;;4.40;78.90;;;;;;5046901;28;20079;-64
2020/12/07 03:28:23;;;;;;;4.65;3.83;;;4.50;78.80;;;;;;5042066;28;20320;-63
2020/12/07 03:30:49;;;;;;;5.45;4.45;;;4.50;78.80;;;;;;5041199;28;20041;-63
2020/12/07 03:33:14;;;;;;;5.03;4.28;;;4.50;79.00;;;;;;5040833;28;20037;-63
2020/12/07 03:35:40;;;;;;;5.35;4.30;;;4.40;78.50;;;;;;5044147;28;20220;-63
2020/12/07 03:38:05;;;;;;;6.13;4.60;;;4.40;78.90;;;;;;5046908;28;20033;-63
2020/12/07 03:40:34;;;;;;;4.93;4.03;;;4.40;78.60;;;;;;5042999;28;20041;-63
2020/12/07 03:43:00;;;;;;;6.22;4.20;;;4.40;78.60;;;;;;5042190;28;20041;-63
2020/12/07 03:45:26;;;;;;;6.07;4.70;;;4.30;78.20;;;;;;5039939;28;20033;-63
2020/12/07 03:47:52;;;;;;;5.18;4.30;;;4.20;78.20;;;;;;5041364;28;20033;-63
2020/12/07 03:50:17;;;;;;;5.78;4.80;;;4.10;78.70;;;;;;5046438;28;20190;-63
2020/12/07 03:52:43;;;;;;;5.80;4.40;;;4.10;78.70;;;;;;5043520;28;20268;-63
2020/12/07 03:55:08;;;;;;;6.03;4.28;;;4.00;78.50;;;;;;5039350;28;20045;-63
2020/12/07 03:57:34;;;;;;;5.35;4.30;;;4.00;78.50;;;;;;5033426;28;20037;-63
2020/12/07 03:59:59;;;;;;;6.10;4.72;;;4.10;78.20;;;;;;5042822;28;20048;-63
2020/12/07 04:02:27;;;;;;;5.70;4.80;;;4.10;78.00;;;;;;5046191;28;20241;-63
2020/12/07 04:05:02;;;;;;;7.10;4.63;;;3.90;78.10;;;;;;5040104;28;20033;-63
2020/12/07 04:07:28;;;;;;;5.47;4.53;;;4.00;78.30;;;;;;5041176;28;20039;-63
2020/12/07 04:09:53;;;;;;;7.00;4.47;;;4.00;78.00;;;;;;5040698;28;20061;-63
2020/12/07 04:12:19;;;;;;;5.65;4.45;;;3.90;78.00;;;;;;5042246;28;20045;-63
2020/12/07 04:14:44;;;;;;;6.70;4.38;;;3.90;78.80;;;;;;5045611;28;20224;-64
2020/12/07 04:17:10;;;;;;;5.55;3.97;;;4.10;78.40;;;;;;5038682;28;20040;-63
2020/12/07 04:19:35;;;;;;;4.57;3.53;;;4.10;78.90;;;;;;5042564;28;20064;-63
2020/12/07 04:22:01;;;;;;;5.15;3.83;;;4.00;78.30;;;;;;5040580;28;20036;-63
2020/12/07 04:24:26;;;;;;;5.85;3.50;;;3.90;78.80;;;;;;5040094;28;20029;-63
2020/12/07 04:26:52;;;;;;;4.25;3.20;;;3.90;79.10;;;;;;5045426;28;20356;-63
2020/12/07 04:29:17;;;;;;;3.70;3.05;;;3.70;79.00;;;;;;5041212;28;20040;-63
2020/12/07 04:31:43;;;;;;;4.20;3.30;;;3.70;78.90;;;;;;5041754;28;20040;-63
2020/12/07 04:34:08;;;;;;;4.85;3.50;;;3.70;79.20;;;;;;5041842;28;20105;-63
2020/12/07 04:36:34;;;;;;;9.60;6.22;;;3.70;78.60;;;;;;5040741;28;20241;-63
2020/12/07 04:38:59;;;;;;;7.70;5.38;;;3.60;78.50;;;;;;5042308;28;20034;-61
2020/12/07 04:41:25;;;;;;;8.38;5.88;;;3.60;78.30;;;;;;5045206;28;20026;-63
2020/12/07 04:43:50;;;;;;;5.20;3.88;;;3.50;78.00;;;;;;5040266;28;20037;-63
2020/12/07 04:46:16;;;;;;;7.13;4.80;;;3.50;78.40;;;;;;5038562;28;20347;-62
2020/12/07 04:48:42;;;;;;;7.38;3.78;;;3.60;78.50;;;;;;5040871;28;20044;-63
2020/12/07 04:51:09;;;;;;;4.35;3.63;;;3.50;79.00;;;;;;5060778;28;20041;-63
2020/12/07 04:53:35;;;;;;;8.60;3.78;;;3.60;79.20;;;;;;5023881;28;20105;-63
2020/12/07 04:56:01;;;;;;;4.10;3.30;;;3.70;79.20;;;;;;5038403;28;20041;-63
2020/12/07 04:58:27;;;;;;;4.28;3.17;;;3.50;79.40;;;;;;5041320;28;20041;-63
2020/12/07 05:00:52;;;;;;;5.90;3.65;;;3.60;79.50;;;;;;5041043;28;20060;-63
2020/12/07 05:03:18;;;;;;;8.60;4.00;;;3.50;79.50;;;;;;5044716;28;20324;-64
2020/12/07 05:05:43;;;;;;;5.95;3.78;;;3.60;79.30;;;;;;5039615;28;20316;-63
2020/12/07 05:08:09;;;;;;;4.53;3.47;;;3.40;79.10;;;;;;5035282;28;20337;-63
2020/12/07 05:10:39;;;;;;;5.22;3.38;;;3.40;78.80;;;;;;5039187;28;20252;-63
2020/12/07 05:15:49;;;;;;;4.03;3.22;;;3.50;78.30;;;;;;5039983;28;20031;-63
2020/12/07 05:18:15;;;;;;;4.80;3.13;;;3.60;78.40;;;;;;5044493;28;20065;-63
2020/12/07 05:20:41;;;;;;;5.72;3.30;;;3.60;78.50;;;;;;5039502;28;20030;-63
2020/12/07 05:23:06;;;;;;;6.20;3.65;;;3.60;78.80;;;;;;5041111;28;20071;-63
2020/12/07 05:25:32;;;;;;;7.63;3.38;;;3.60;79.00;;;;;;5016252;28;20022;-63
2020/12/07 05:27:58;;;;;;;10.07;3.75;;;3.60;79.00;;;;;;5031431;28;20037;-63
2020/12/07 05:30:27;;;;;;;6.35;3.47;;;3.70;78.80;;;;;;5044346;28;20022;-63
2020/12/07 05:32:53;;;;;;;6.68;3.67;;;3.70;79.10;;;;;;5071459;28;20033;-64
2020/12/07 05:35:18;;;;;;;5.70;3.67;;;3.80;79.00;;;;;;5041988;28;20105;-63
2020/12/07 05:37:44;;;;;;;7.68;3.42;;;3.80;78.80;;;;;;5020505;28;20052;-63
2020/12/07 05:40:13;;;;;;;11.48;3.70;;;3.70;79.70;;;;;;5041707;28;20034;-63
2020/12/07 05:42:42;;;;;;;5.00;3.17;;;3.80;79.80;;;;;;5044307;28;20040;-64
2020/12/07 05:45:08;;;;;;;5.82;3.38;;;3.80;79.60;;;;;;5037214;28;20104;-64
2020/12/07 05:47:36;;;;;;;11.63;4.00;;;3.80;79.40;;;;;;5040803;28;20101;-64
2020/12/07 05:50:02;;;;;;;4.90;3.20;;;3.80;79.60;;;;;;5036907;28;20033;-65
2020/12/07 05:52:50;;;;;;;5.65;2.90;;;3.70;79.70;;;;;;5041788;28;20420;-64
2020/12/07 05:55:17;;;;;;;4.45;3.22;;;3.70;79.80;;;;;;5034764;28;20037;-65
2020/12/07 05:57:49;;;;;;;3.72;2.88;;;3.70;79.20;;;;;;5044508;28;20340;-64
2020/12/07 06:00:19;;;;;;;5.22;2.90;;;3.70;79.30;;;;;;5039953;28;20091;-64
2020/12/07 06:02:47;;;;;;;5.88;2.60;;;3.70;79.00;;;;;;5041232;28;20360;-64
2020/12/07 06:05:13;;;;;;;3.55;2.70;;;3.50;79.20;;;;;;5040097;28;20033;-64
2020/12/07 06:07:39;;;;;;;6.72;2.80;;;3.60;79.20;;;;;;5039373;28;20201;-64
2020/12/07 06:10:04;;;;;;;3.58;2.38;;;3.60;78.90;;;;;;5038849;28;20029;-63
2020/12/07 06:12:35;;;;;;;5.80;2.63;;;3.50;78.90;;;;;;5046836;28;20073;-64
2020/12/07 06:15:01;;;;;;;5.22;2.83;;;3.40;79.20;;;;;;5045043;28;20029;-65
2020/12/07 06:17:32;;;;;;;4.85;2.80;;;3.50;79.30;;;;;;5043203;28;20106;-67
2020/12/07 06:19:58;;;;;;;4.90;2.65;;;3.60;79.20;;;;;;5041333;28;20152;-66
2020/12/07 06:22:24;;;;;;;4.32;2.90;;;3.50;79.20;;;;;;5042504;28;20037;-65
2020/12/07 06:24:51;;;;;;;6.00;3.15;;;3.50;79.10;;;;;;5047706;28;20029;-65
2020/12/07 06:27:17;;;;;;;5.03;2.85;;;3.50;78.90;;;;;;5037751;28;20072;-64
2020/12/07 06:29:59;;;;;;;5.03;3.17;;;3.50;78.80;;;;;;5045269;28;20037;-65
2020/12/07 06:32:48;;;;;;;4.90;3.10;;;3.40;78.90;;;;;;5033122;28;20045;-67
2020/12/07 06:35:13;;;;;;;4.72;2.85;;;3.40;78.90;;;;;;5024234;28;20065;-66
2020/12/07 06:37:44;;;;;;;4.50;3.00;;;3.40;79.10;;;;;;5020972;28;20074;-66
2020/12/07 06:40:10;;;;;;;4.13;2.65;;;3.40;78.70;;;;;;5027072;28;20061;-66
2020/12/07 06:42:39;;;;;;;7.60;3.20;;;3.40;78.40;;;;;;5022450;28;20229;-66
2020/12/07 06:45:06;;;;;;;6.40;3.28;;;3.40;78.30;;;;;;5032678;28;20113;-66
2020/12/07 06:47:32;;;;;;;6.78;2.90;;;3.40;78.60;;;;;;5043309;28;20037;-66
2020/12/07 06:50:12;;;;;;;4.22;2.85;;;3.40;78.70;;;;;;5040347;28;20041;-66
2020/12/07 06:52:40;;;;;;;6.72;2.88;;;3.40;78.30;;;;;;5020608;28;20028;-65
2020/12/07 06:55:09;;;;;;;13.65;3.70;;;3.20;78.70;;;;;;5027488;28;20101;-66
2020/12/07 06:57:43;;;;;;;15.77;3.88;;;3.30;79.00;;;;;;5023701;28;20102;-66
2020/12/07 07:00:18;;;;;;;7.50;3.40;;;3.20;79.50;;;;;;5022753;28;20044;-68
2020/12/07 07:03:06;;;;;;;7.03;3.58;;;3.20;80.20;;;;;;5023101;28;20037;-68
2020/12/07 07:05:31;;;;;;;7.70;3.70;;;3.20;80.30;;;;;;5024791;28;20037;-68
2020/12/07 07:07:57;;;;;;;6.00;3.83;;;3.30;80.30;;;;;;5023763;28;20076;-67
2020/12/07 07:10:23;;;;;;;7.13;4.13;;;3.40;80.10;;;;;;5027003;28;20085;-68
2020/12/07 07:12:49;;;;;;;7.57;4.20;;;3.40;79.60;;;;;;5023081;28;20399;-68
2020/12/07 07:15:15;;;;;;;8.98;4.28;;;3.40;80.00;;;;;;5023768;28;20229;-68
2020/12/07 07:17:42;;;;;;;7.97;4.80;;;3.30;80.30;;;;;;5020644;28;20101;-68
2020/12/07 07:20:09;;;;;;;6.65;4.50;;;3.10;80.90;;;;;;5024177;28;20038;-68
2020/12/07 07:22:38;;;;;;;8.15;4.68;;;3.20;80.90;;;;;;5025817;28;20060;-68
2020/12/07 07:30:19;;;;;;;8.88;5.28;;;3.40;79.40;;;;;;5020684;28;20261;-68
2020/12/07 07:32:46;;;;;;;9.02;4.75;;;3.40;79.60;;;;;;5023404;28;20034;-68
2020/12/07 07:35:15;;;;;;;8.55;4.38;;;3.40;79.40;;;;;;5022708;28;20042;-68
2020/12/07 07:37:40;;;;;;;7.20;4.20;;;3.40;79.60;;;;;;5026559;28;20343;-68
2020/12/07 07:40:11;;;;;;;8.52;4.70;;;3.50;79.40;;;;;;5020958;28;20053;-68
2020/12/07 07:42:50;;;;;;;8.27;4.85;;;3.50;79.00;;;;;;5023591;28;20049;-68
2020/12/07 07:45:18;;;;;;;8.07;4.20;;;3.50;79.00;;;;;;5022954;28;20041;-68
2020/12/07 07:47:51;;;;;;;10.65;5.10;;;3.60;79.20;;;;;;5028960;28;20352;-68
2020/12/07 08:08:08;;;;;;;5.88;4.00;;;4.30;77.00;;;;;;5028663;28;20040;-68
2020/12/07 08:17:14;;;;;;;5.25;3.38;;;4.50;76.50;;;;;;5043315;28;20037;-68
2020/12/07 08:19:40;;;;;;;6.03;4.03;;;4.80;76.00;;;;;;5041975;28;20037;-69
2020/12/07 08:22:13;;;;;;;5.97;3.50;;;4.60;76.10;;;;;;5041865;28;20112;-69
2020/12/07 08:24:57;;;;;;;6.68;3.60;;;4.80;76.30;;;;;;5040224;28;20384;-68
2020/12/07 08:27:33;;;;;;;7.75;3.88;;;4.90;76.00;;;;;;5042277;28;20100;-68
2020/12/07 08:30:00;;;;;;;6.63;3.88;;;5.00;75.80;;;;;;5039372;28;20048;-69
2020/12/07 08:32:25;;;;;;;7.05;3.63;;;4.90;76.30;;;;;;5045898;28;20030;-69
2020/12/07 08:34:51;;;;;;;8.00;3.97;;;5.00;76.00;;;;;;5025353;28;20049;-69
2020/12/07 08:37:16;;;;;;;5.25;3.40;;;5.10;75.30;;;;;;5030198;28;20348;-70
2020/12/07 08:39:42;;;;;;;5.35;2.95;;;5.10;76.00;;;;;;5042246;28;20033;-69
2020/12/07 08:42:08;;;;;;;4.90;3.45;;;5.00;76.20;;;;;;5022706;28;20042;-69
2020/12/07 08:44:33;;;;;;;6.07;3.75;;;5.10;76.10;;;;;;5044884;28;20025;-68
2020/12/07 08:46:59;;;;;;;5.13;3.40;;;5.10;75.90;;;;;;5039372;28;20044;-68
2020/12/07 08:49:24;;;;;;;6.50;3.75;;;5.30;75.90;;;;;;5041514;28;20063;-69
2020/12/07 08:51:50;;;;;;;6.70;4.00;;;5.40;75.30;;;;;;5041264;28;20325;-70
2020/12/07 08:54:15;;;;;;;5.05;3.58;;;5.40;75.40;;;;;;5039360;28;20276;-69
2020/12/07 08:56:41;;;;;;;4.50;3.03;;;5.40;75.10;;;;;;5045187;28;20025;-70
2020/12/07 08:59:06;;;;;;;6.43;3.80;;;5.40;75.80;;;;;;5040596;28;20049;-70
2020/12/07 09:01:32;;;;;;;3.85;2.90;;;5.40;75.70;;;;;;5012536;28;20313;-68
2020/12/07 09:03:58;;;;;;;4.07;2.85;;;5.40;75.80;;;;;;4992737;28;20037;-68
2020/12/07 09:06:23;;;;;;;4.97;3.35;;;5.60;76.00;;;;;;5016503;28;20092;-67
2020/12/07 09:08:49;;;;;;;4.57;3.00;;;5.90;74.80;;;;;;5025183;28;20124;-68
2020/12/07 09:11:18;;;;;;;5.00;3.40;;;6.30;73.40;;;;;;5039186;28;20053;-67
2020/12/07 09:13:44;;;;;;;4.32;3.03;;;6.40;72.70;;;;;;5041625;28;20045;-67
2020/12/07 09:16:09;;;;;;;4.07;2.78;;;6.30;73.20;;;;;;5031640;28;20072;-67
2020/12/07 09:18:36;;;;;;;3.80;2.60;;;6.20;73.10;;;;;;5019253;28;22937;-67
2020/12/07 09:21:05;;;;;;;4.10;3.05;;;6.50;71.90;;;;;;5007186;28;20022;-67
2020/12/07 09:23:31;;;;;;;3.33;2.33;;;6.60;70.90;;;;;;5021420;28;20199;-67
2020/12/07 09:25:56;;;;;;;4.70;2.63;;;6.90;70.50;;;;;;5035754;28;20045;-67
2020/12/07 09:28:22;;;;;;;4.35;2.80;;;7.20;68.10;;;;;;5025046;28;20040;-69
2020/12/07 09:30:47;;;;;;;3.33;2.50;;;7.90;67.20;;;;;;5039693;28;20080;-70
2020/12/07 09:33:13;;;;;;;3.13;2.47;;;8.60;65.20;;;;;;5044877;28;20029;-70
2020/12/07 09:35:39;;;;;;;3.75;2.50;;;9.40;60.60;;;;;;5041165;28;20048;-70
2020/12/07 09:38:04;;;;;;;6.03;2.00;;;10.10;58.00;;;;;;5040603;28;20038;-70
2020/12/07 09:40:30;;;;;;;1.90;1.45;;;10.20;56.90;;;;;;5041014;28;20206;-70
2020/12/07 09:42:56;;;;;;;1.60;1.00;;;10.30;56.60;;;;;;5041593;28;20029;-70
2020/12/07 09:45:21;;;;;;;2.10;1.33;;;10.40;56.70;;;;;;5039421;28;20228;-69
2020/12/07 09:47:47;;;;;;;1.58;1.10;;;10.10;56.70;;;;;;5044363;28;20049;-70
2020/12/07 09:50:13;;;;;;;1.85;1.17;;;10.00;56.40;;;;;;5037899;28;20128;-70
2020/12/07 09:52:39;;;;;;;1.30;1.00;;;10.40;56.30;;;;;;5039595;28;20355;-68
2020/12/07 09:55:05;;;;;;;1.60;1.05;;;10.40;53.70;;;;;;5038682;28;20041;-70
2020/12/07 09:57:30;;;;;;;2.10;1.10;;;10.60;54.80;;;;;;5031980;28;20044;-66
2020/12/07 09:59:56;;;;;;;1.98;1.23;;;10.80;54.00;;;;;;5044378;28;20132;-67
2020/12/07 10:02:21;;;;;;;2.85;1.23;;;10.70;53.70;;;;;;5040363;28;20045;-68
2020/12/07 10:04:47;;;;;;;1.80;1.23;;;10.80;53.40;;;;;;5038879;28;20043;-68
2020/12/07 10:07:13;;;;;;;1.70;1.00;;;10.30;55.00;;;;;;5036239;28;20038;-67
2020/12/07 10:09:38;;;;;;;11.63;4.65;;;9.90;54.70;;;;;;5036334;28;20087;-67
2020/12/07 10:12:05;;;;;;;1.98;1.10;;;9.20;56.80;;;;;;5043717;28;20363;-67
2020/12/07 10:14:31;;;;;;;2.50;1.60;;;9.00;56.00;;;;;;5039846;28;20048;-66
2020/12/07 10:16:58;;;;;;;2.80;1.50;;;9.10;57.90;;;;;;5041488;28;20264;-65
2020/12/07 10:19:24;;;;;;;2.00;1.10;;;9.10;59.00;;;;;;5041160;28;20030;-68
2020/12/07 10:21:49;;;;;;;1.55;1.00;;;9.20;57.80;;;;;;5040622;28;20057;-67
2020/12/07 10:24:15;;;;;;;2.10;1.17;;;9.20;59.50;;;;;;5043762;28;20040;-67
2020/12/07 10:26:40;;;;;;;2.15;1.10;;;9.30;57.40;;;;;;5039585;28;20041;-68
2020/12/07 10:29:06;;;;;;;3.33;1.02;;;9.40;58.50;;;;;;5040977;28;20261;-67
2020/12/07 10:31:31;;;;;;;1.50;1.02;;;9.10;56.50;;;;;;5034943;28;20100;-67
2020/12/07 10:33:57;;;;;;;2.22;1.15;;;8.60;58.20;;;;;;5040796;28;20068;-67
2020/12/07 10:36:24;;;;;;;1.23;0.95;;;8.70;60.10;;;;;;5043595;28;20124;-67
2020/12/07 10:38:51;;;;;;;1.60;1.17;;;8.90;60.00;;;;;;5040694;28;20040;-67
2020/12/07 10:41:16;;;;;;;1.88;0.90;;;8.90;60.10;;;;;;5041032;28;20276;-67
2020/12/07 10:43:42;;;;;;;1.70;1.00;;;9.10;60.10;;;;;;5040648;28;20045;-67
2020/12/07 10:46:07;;;;;;;1.85;0.95;;;9.30;59.90;;;;;;5037645;28;20032;-67
2020/12/07 10:48:33;;;;;;;1.83;1.20;;;9.50;60.00;;;;;;5043546;28;20025;-68
2020/12/07 10:50:59;;;;;;;1.38;0.93;;;9.70;57.50;;;;;;5040629;28;20038;-68
2020/12/07 10:53:24;;;;;;;1.90;1.00;;;9.80;58.00;;;;;;5023996;28;20042;-68
2020/12/07 10:55:50;;;;;;;2.45;1.00;;;9.80;55.80;;;;;;5016080;28;20042;-68
2020/12/07 10:58:16;;;;;;;1.48;0.98;;;10.10;56.30;;;;;;5020374;28;20070;-70
2020/12/07 11:00:42;;;;;;;2.15;1.00;;;10.40;57.40;;;;;;5027170;28;20022;-70
2020/12/07 11:03:08;;;;;;;1.20;0.90;;;10.40;55.50;;;;;;5024450;28;20236;-71
2020/12/07 11:05:34;;;;;;;1.73;1.10;;;10.40;56.70;;;;;;5024339;28;20045;-70
2020/12/07 11:08:00;;;;;;;1.48;1.10;;;10.40;55.60;;;;;;5024328;28;20057;-70
2020/12/07 11:10:26;;;;;;;1.00;0.80;;;10.80;56.20;;;;;;5024472;28;20034;-70
2020/12/07 11:13:02;;;;;;;1.58;1.08;;;11.00;52.80;;;;;;5026820;28;20060;-69
2020/12/07 11:15:28;;;;;;;1.10;0.80;;;11.10;54.80;;;;;;5025005;28;20084;-71
2020/12/07 11:17:53;;;;;;;1.30;0.95;;;11.20;51.40;;;;;;5022681;28;20097;-72
2020/12/07 11:20:19;;;;;;;1.60;0.98;;;11.00;51.00;;;;;;5022741;28;20225;-69
2020/12/07 11:22:45;;;;;;;2.17;1.20;;;11.10;52.00;;;;;;5024506;28;20040;-68
2020/12/07 11:25:10;;;;;;;1.48;0.90;;;10.70;52.10;;;;;;5022634;28;20085;-69
2020/12/07 11:27:36;;;;;;;1.60;1.00;;;10.10;53.50;;;;;;5027031;28;20245;-69
2020/12/07 11:30:01;;;;;;;1.77;1.15;;;10.10;53.90;;;;;;5024057;28;20037;-69
2020/12/07 11:32:27;;;;;;;1.95;0.93;;;9.90;55.10;;;;;;5023219;28;20037;-69
2020/12/07 11:34:52;;;;;;;3.05;1.00;;;10.00;55.90;;;;;;5022384;28;20250;-60
2020/12/07 11:37:18;;;;;;;3.33;1.10;;;9.60;54.70;;;;;;5024363;28;20038;-59
2020/12/07 11:40:00;;;;;;;2.88;1.10;;;9.30;56.10;;;;;;5026542;28;20033;-59
2020/12/07 11:42:36;;;;;;;2.30;1.45;;;9.50;56.70;;;;;;5024496;28;20058;-59
2020/12/07 11:45:03;;;;;;;1.92;1.08;;;9.20;56.80;;;;;;5023093;28;20065;-60
2020/12/07 11:47:28;;;;;;;2.15;1.17;;;9.00;57.40;;;;;;5023565;28;20048;-59
2020/12/07 11:49:54;;;;;;;1.80;1.20;;;8.90;57.90;;;;;;5022788;28;20034;-59
2020/12/07 11:52:19;;;;;;;2.30;1.35;;;8.80;56.80;;;;;;5022068;28;20333;-60
2020/12/07 11:54:45;;;;;;;5.35;1.80;;;8.80;57.30;;;;;;5026401;28;20060;-59
2020/12/07 11:57:10;;;;;;;2.03;1.30;;;8.90;57.40;;;;;;5022844;28;20041;-59
2020/12/07 11:59:36;;;;;;;2.75;1.42;;;8.70;57.90;;;;;;5021449;28;20038;-60
2020/12/07 12:02:05;;;;;;;3.35;1.50;;;8.50;58.30;;;;;;5015455;28;20084;-59
2020/12/07 12:04:31;;;;;;;2.30;1.52;;;8.40;58.30;;;;;;5013945;28;20034;-59
2020/12/07 12:06:56;;;;;;;2.28;1.30;;;8.20;59.50;;;;;;5024960;28;20026;-59
2020/12/07 12:09:22;;;;;;;2.08;1.33;;;8.50;58.90;;;;;;5018996;28;20104;-59
2020/12/07 12:11:47;;;;;;;1.40;1.10;;;8.50;58.40;;;;;;5020003;28;20077;-60
2020/12/07 12:14:13;;;;;;;1.95;1.20;;;8.40;58.70;;;;;;5021456;28;20042;-60
2020/12/07 12:16:39;;;;;;;2.50;1.30;;;8.40;58.70;;;;;;5021129;28;20081;-60
2020/12/07 12:19:06;;;;;;;2.22;1.20;;;8.40;59.80;;;;;;5026113;28;20022;-60
2020/12/07 12:21:32;;;;;;;1.42;1.08;;;8.20;59.30;;;;;;5018786;28;20046;-59
2020/12/07 12:23:58;;;;;;;4.20;1.00;;;8.20;58.30;;;;;;5018439;28;20045;-59
2020/12/07 12:26:24;;;;;;;2.35;1.23;;;8.20;58.60;;;;;;5020332;28;20034;-59
2020/12/07 12:28:50;;;;;;;1.60;1.10;;;7.90;58.20;;;;;;5021860;28;20352;-59
2020/12/07 12:31:15;;;;;;;1.52;1.20;;;7.90;57.70;;;;;;5045339;28;20033;-60
2020/12/07 12:33:44;;;;;;;1.35;0.90;;;7.90;57.90;;;;;;5039363;28;20390;-59
2020/12/07 12:36:17;;;;;;;1.35;0.90;;;8.00;58.00;;;;;;5039912;28;20060;-59
2020/12/07 12:38:43;;;;;;;1.50;0.88;;;8.10;57.10;;;;;;5041960;28;20065;-60
2020/12/07 12:41:08;;;;;;;4.00;1.10;;;8.20;57.30;;;;;;5040785;28;20040;-61
2020/12/07 12:43:34;;;;;;;3.30;0.80;;;8.30;57.40;;;;;;5045378;28;20018;-59
2020/12/07 12:46:02;;;;;;;0.70;0.70;;;8.40;57.50;;;;;;5039983;28;20029;-60
2020/12/07 12:48:27;;;;;;;0.80;0.63;;;8.20;55.50;;;;;;5026782;28;20308;-59
2020/12/07 12:50:53;;;;;;;1.30;0.82;;;8.10;57.00;;;;;;5017417;28;20044;-60
2020/12/07 12:53:18;;;;;;;1.38;0.90;;;8.20;59.40;;;;;;5025148;28;20080;-59
2020/12/07 12:55:44;;;;;;;1.40;0.90;;;8.10;58.40;;;;;;5019276;28;20092;-60
2020/12/07 12:58:09;;;;;;;1.17;0.80;;;7.90;57.60;;;;;;5032075;28;20317;-60
2020/12/07 13:00:35;;;;;;;3.42;1.00;;;7.80;56.90;;;;;;5032105;28;20033;-59
2020/12/07 13:03:00;;;;;;;1.42;1.10;;;7.70;57.70;;;;;;5019638;28;20337;-60
2020/12/07 13:05:27;;;;;;;3.75;0.90;;;7.60;57.50;;;;;;5025214;28;20317;-59
2020/12/07 13:07:52;;;;;;;2.50;0.70;;;7.50;58.10;;;;;;5036414;28;20033;-60
2020/12/07 13:10:18;;;;;;;1.35;0.70;;;7.50;58.50;;;;;;5028730;28;20110;-59
2020/12/07 13:12:44;;;;;;;2.88;0.60;;;7.60;58.40;;;;;;5020823;28;20367;-59
2020/12/07 13:15:09;;;;;;;1.20;0.80;;;7.60;59.30;;;;;;5038241;28;20033;-59
2020/12/07 13:17:37;;;;;;;3.00;0.70;;;7.70;59.60;;;;;;5044676;28;20021;-59
2020/12/07 13:20:06;;;;;;;2.72;1.60;;;7.60;59.80;;;;;;5038931;28;20252;-59
2020/12/07 13:23:02;;;;;;;3.72;1.20;;;7.50;60.80;;;;;;5040697;28;20336;-60
2020/12/07 13:25:26;;;;;;;1.50;0.90;;;7.40;61.20;;;;;;5039175;28;20033;-60